Terminal Aerodrome Forecast
Issued by NWS Binghamton, NY

Home | Current Version | Previous Version | Text Only | Print | Product List | Glossary On
Versions: 1 2 3 4 5 6 7 8 9 10 11 12 13 14 15 16 17
000
FTUS41 KBGM 300536
TAFBGM
TAF
KBGM 300536Z 3006/3106 01004KT P6SM FEW250
     FM301400 03003KT P6SM BKN060 OVC100
      TEMPO 3016/3020 5SM -SHRA BKN040
     FM310200 11004KT P6SM BKN100 OVC200 PROB30 3104/3106 3SM -SHRA
      BR BKN025 OVC040=

USA.gov is the U.S. government's official web portal to all federal, state and local government web resources and services.